createdAt,value
2018-12-23T00:00:33.091Z,338.47
2018-12-23T00:03:01.678Z,335.27
2018-12-23T00:05:30.256Z,329.53
2018-12-23T00:07:58.865Z,357.40
2018-12-23T00:10:27.434Z,348.87
2018-12-23T00:12:55.956Z,337.40
2018-12-23T00:15:24.450Z,334.83
2018-12-23T00:17:53.018Z,323.87
2018-12-23T00:20:21.575Z,310.63
2018-12-23T00:22:50.181Z,330.23
2018-12-23T00:25:18.721Z,319.00
2018-12-23T00:27:47.314Z,325.87
2018-12-23T00:30:15.924Z,318.83
2018-12-23T00:32:44.469Z,304.97
2018-12-23T00:35:20.180Z,315.37
2018-12-23T00:37:43.659Z,315.03
2018-12-23T00:40:12.219Z,322.37
2018-12-23T00:42:40.740Z,337.57
2018-12-23T00:45:09.381Z,318.47
2018-12-23T00:47:37.952Z,318.63
2018-12-23T00:50:08.047Z,319.50
2018-12-23T00:52:36.563Z,306.20
2018-12-23T00:55:05.343Z,306.63
2018-12-23T00:57:33.884Z,308.10
2018-12-23T01:00:02.579Z,313.90
2018-12-23T01:02:31.133Z,309.13
2018-12-23T01:04:59.654Z,307.47
2018-12-23T01:07:28.160Z,316.83
2018-12-23T01:09:56.688Z,325.23
2018-12-23T01:12:25.230Z,329.30
2018-12-23T01:14:53.774Z,319.63
2018-12-23T01:17:22.361Z,310.57
2018-12-23T01:19:51.029Z,327.80
2018-12-23T01:22:19.594Z,323.40
2018-12-23T01:24:48.175Z,347.13
2018-12-23T01:27:16.778Z,337.23
2018-12-23T01:29:45.416Z,335.17
2018-12-23T01:32:13.969Z,330.70
2018-12-23T01:34:42.606Z,313.07
2018-12-23T01:37:11.204Z,312.70
2018-12-23T01:39:39.763Z,310.03
2018-12-23T01:42:08.350Z,325.60
2018-12-23T01:44:37.011Z,324.13
2018-12-23T01:47:05.571Z,314.70
2018-12-23T01:49:34.214Z,320.80
2018-12-23T01:52:02.830Z,326.80
2018-12-23T01:54:31.332Z,338.33
2018-12-23T01:56:59.934Z,322.63
2018-12-23T01:59:28.554Z,342.07
2018-12-23T02:01:57.088Z,331.27
2018-12-23T02:04:25.644Z,340.57
2018-12-23T02:06:54.231Z,331.40
2018-12-23T02:09:22.848Z,336.07
2018-12-23T02:11:51.711Z,321.07
2018-12-23T02:14:20.352Z,329.10
2018-12-23T02:16:48.928Z,321.27
2018-12-23T02:19:17.487Z,328.60
2018-12-23T02:21:46.049Z,315.33
2018-12-23T02:24:14.676Z,321.37
2018-12-23T02:26:43.268Z,293.80
2018-12-23T02:29:11.789Z,307.97
2018-12-23T02:31:40.342Z,304.53
2018-12-23T02:34:08.951Z,296.30
2018-12-23T02:36:37.577Z,308.17
2018-12-23T02:39:08.391Z,277.00
2018-12-23T02:41:37.027Z,276.10
2018-12-23T02:44:05.819Z,274.80
2018-12-23T02:46:34.430Z,279.10
2018-12-23T02:49:03.006Z,280.53
2018-12-23T02:51:31.616Z,275.67
2018-12-23T02:54:00.548Z,290.63
2018-12-23T02:56:29.117Z,282.80
2018-12-23T02:58:57.757Z,278.57
2018-12-23T03:01:26.347Z,266.40
2018-12-23T03:03:55.038Z,248.00
2018-12-23T03:06:23.585Z,223.90
2018-12-23T03:08:52.153Z,216.13
2018-12-23T03:11:20.782Z,198.27
2018-12-23T03:13:49.392Z,201.27
2018-12-23T03:16:17.987Z,196.63
2018-12-23T03:18:46.513Z,192.03
2018-12-23T03:21:15.104Z,194.47
2018-12-23T03:23:43.666Z,182.10
2018-12-23T03:26:12.285Z,178.23
2018-12-23T03:28:40.859Z,164.70
2018-12-23T03:31:09.413Z,147.27
2018-12-23T03:33:38.011Z,150.10
2018-12-23T03:36:14.728Z,141.37
2018-12-23T03:38:37.178Z,129.30
2018-12-23T03:41:06.034Z,125.73
2018-12-23T03:43:34.604Z,136.10
2018-12-23T03:46:03.176Z,139.97
2018-12-23T03:48:31.733Z,152.90
2018-12-23T03:51:00.281Z,173.83
2018-12-23T03:53:28.836Z,176.03
2018-12-23T03:55:57.323Z,180.83
2018-12-23T03:58:25.829Z,183.87
2018-12-23T04:00:54.414Z,181.77
2018-12-23T04:03:23.003Z,183.87
2018-12-23T04:05:51.589Z,185.73
2018-12-23T04:08:20.120Z,187.10
2018-12-23T04:10:48.727Z,195.83
2018-12-23T04:13:17.332Z,183.83
2018-12-23T04:15:45.919Z,196.00
2018-12-23T04:18:14.489Z,193.43
2018-12-23T04:20:43.100Z,203.73
2018-12-23T04:23:11.668Z,209.27
2018-12-23T04:25:40.192Z,200.87
2018-12-23T04:28:08.779Z,194.30
2018-12-23T04:30:37.362Z,198.80
2018-12-23T04:33:05.893Z,197.97
2018-12-23T04:35:34.467Z,202.40
2018-12-23T04:38:03.043Z,194.17
2018-12-23T04:43:06.302Z,189.53
2018-12-23T04:45:34.856Z,192.10
2018-12-23T04:48:03.503Z,198.43
2018-12-23T04:50:32.093Z,189.93
2018-12-23T04:53:00.681Z,209.63
2018-12-23T04:55:29.234Z,183.83
2018-12-23T04:57:57.800Z,195.60
2018-12-23T05:00:26.388Z,188.03
2018-12-23T05:02:55.021Z,185.73
2018-12-23T05:05:23.668Z,179.43
2018-12-23T05:07:52.237Z,158.07
2018-12-23T05:10:20.790Z,155.17
2018-12-23T05:12:49.645Z,155.97
2018-12-23T05:15:18.213Z,177.00
2018-12-23T05:17:46.773Z,198.27
2018-12-23T05:20:15.329Z,201.13
2018-12-23T05:22:43.936Z,205.67
2018-12-23T05:25:12.490Z,177.80
2018-12-23T05:27:41.085Z,164.30
2018-12-23T05:30:09.643Z,168.07
2018-12-23T05:32:38.163Z,177.20
2018-12-23T05:35:06.739Z,172.17
2018-12-23T05:37:35.283Z,153.50
2018-12-23T05:40:03.985Z,168.23
2018-12-23T05:42:32.507Z,144.57
2018-12-23T05:45:01.074Z,166.10
2018-12-23T05:47:29.692Z,185.87
2018-12-23T05:49:58.367Z,192.00
2018-12-23T05:52:27.008Z,190.93
2018-12-23T05:54:55.556Z,193.33
2018-12-23T05:57:24.120Z,202.40
2018-12-23T05:59:52.946Z,207.97
2018-12-23T06:02:21.537Z,186.40
2018-12-23T06:04:50.124Z,174.67
2018-12-23T06:07:18.683Z,182.93
2018-12-23T06:09:47.265Z,187.03
2018-12-23T06:12:15.808Z,184.33
2018-12-23T06:14:44.385Z,186.77
2018-12-23T06:17:12.958Z,171.63
2018-12-23T06:19:41.574Z,163.03
2018-12-23T06:22:10.110Z,174.50
2018-12-23T06:24:39.007Z,157.37
2018-12-23T06:27:07.620Z,171.93
2018-12-23T06:29:36.164Z,178.47
2018-12-23T06:32:04.875Z,175.10
2018-12-23T06:34:33.583Z,168.43
2018-12-23T06:37:09.715Z,197.37
2018-12-23T06:39:32.793Z,167.57
2018-12-23T06:42:01.368Z,159.63
2018-12-23T06:44:29.877Z,138.77
2018-12-23T06:47:05.206Z,157.70
2018-12-23T06:49:33.769Z,127.03
2018-12-23T06:52:02.287Z,122.37
2018-12-23T06:54:30.847Z,115.50
2018-12-23T06:56:59.466Z,142.17
2018-12-23T06:59:28.045Z,135.67
2018-12-23T07:01:56.615Z,131.33
2018-12-23T07:04:25.298Z,131.43
2018-12-23T07:06:53.918Z,137.50
2018-12-23T07:09:22.446Z,130.10
2018-12-23T07:11:51.032Z,132.30
2018-12-23T07:14:19.707Z,127.63
2018-12-23T07:16:48.282Z,152.17
2018-12-23T07:19:16.877Z,144.33
2018-12-23T07:21:45.427Z,145.30
2018-12-23T07:24:14.002Z,131.57
2018-12-23T07:26:43.659Z,124.17
2018-12-23T07:29:12.432Z,124.83
2018-12-23T07:31:40.957Z,115.60
2018-12-23T07:34:09.508Z,108.77
2018-12-23T07:36:38.157Z,105.67
2018-12-23T07:39:07.094Z,96.50
2018-12-23T07:41:35.724Z,101.40
2018-12-23T07:44:04.297Z,90.97
2018-12-23T07:46:32.885Z,65.40
2018-12-23T07:49:01.392Z,72.23
2018-12-23T07:51:29.936Z,83.97
2018-12-23T07:53:58.546Z,54.47
2018-12-23T07:56:27.072Z,51.47
2018-12-23T07:58:55.704Z,47.40
2018-12-23T08:01:24.242Z,55.57
2018-12-23T08:03:53.019Z,45.80
2018-12-23T08:06:21.707Z,46.07
2018-12-23T08:08:50.241Z,38.57
2018-12-23T08:11:18.827Z,39.90
2018-12-23T08:13:47.425Z,39.27
2018-12-23T08:16:16.005Z,39.27
2018-12-23T08:18:44.552Z,34.03
2018-12-23T08:21:13.082Z,28.70
2018-12-23T08:23:41.855Z,28.23
2018-12-23T08:26:10.395Z,28.67
2018-12-23T08:28:39.001Z,28.70
2018-12-23T08:31:07.573Z,32.23
2018-12-23T08:33:36.097Z,27.33
2018-12-23T08:36:04.824Z,29.40
2018-12-23T08:38:33.379Z,24.73
2018-12-23T08:41:01.980Z,22.77
2018-12-23T08:43:30.542Z,25.77
2018-12-23T08:45:59.172Z,26.57
2018-12-23T08:48:27.678Z,25.57
2018-12-23T08:50:56.211Z,23.40
2018-12-23T08:53:24.718Z,19.00
2018-12-23T08:55:53.280Z,19.83
2018-12-23T08:58:21.829Z,17.37
2018-12-23T09:00:50.600Z,19.10
2018-12-23T09:03:19.541Z,20.53
2018-12-23T09:05:48.159Z,22.93
2018-12-23T09:08:16.668Z,20.27
2018-12-23T09:10:45.258Z,20.67
2018-12-23T09:13:13.814Z,13.97
2018-12-23T09:15:42.429Z,11.03
2018-12-23T09:18:19.127Z,10.20
2018-12-23T09:20:41.647Z,11.33
2018-12-23T09:23:10.570Z,11.93
2018-12-23T09:25:39.323Z,9.83
2018-12-23T09:28:08.953Z,9.90
2018-12-23T09:30:37.726Z,8.53
2018-12-23T09:33:06.288Z,9.50
2018-12-23T09:35:35.176Z,8.33
2018-12-23T09:38:03.724Z,11.30
2018-12-23T09:40:32.340Z,9.40
2018-12-23T09:43:00.829Z,11.13
2018-12-23T09:45:29.561Z,10.53
2018-12-23T09:47:58.065Z,11.17
2018-12-23T09:50:26.649Z,12.43
2018-12-23T09:52:55.222Z,10.73
2018-12-23T09:55:23.857Z,11.03
2018-12-23T09:57:52.434Z,11.37
2018-12-23T10:00:21.134Z,11.87
2018-12-23T10:02:49.683Z,12.67
2018-12-23T10:05:18.215Z,10.60
2018-12-23T10:07:46.765Z,11.83
2018-12-23T10:10:16.208Z,14.47
2018-12-23T10:12:44.757Z,11.13
2018-12-23T10:15:13.306Z,12.30
2018-12-23T10:17:41.841Z,13.53
2018-12-23T10:20:10.382Z,10.23
2018-12-23T10:22:38.946Z,10.47
2018-12-23T10:25:07.542Z,12.73
2018-12-23T10:27:36.101Z,11.20
2018-12-23T10:30:12.295Z,10.00
2018-12-23T10:32:40.918Z,11.43
2018-12-23T10:35:09.445Z,9.77
2018-12-23T10:37:38.105Z,9.97
2018-12-23T10:40:07.038Z,9.80
2018-12-23T10:42:35.586Z,8.67
2018-12-23T10:45:04.320Z,10.10
2018-12-23T10:47:32.974Z,9.00
2018-12-23T10:50:01.487Z,7.83
2018-12-23T10:52:30.033Z,7.30
2018-12-23T10:54:58.555Z,7.97
2018-12-23T10:57:27.289Z,8.13
2018-12-23T10:59:55.851Z,7.27
2018-12-23T11:02:24.495Z,10.37
2018-12-23T11:04:53.018Z,6.63
2018-12-23T11:07:21.538Z,5.37
2018-12-23T11:09:50.139Z,5.30
2018-12-23T11:12:18.731Z,5.80
2018-12-23T11:14:47.301Z,5.43
2018-12-23T11:17:15.835Z,6.63
2018-12-23T11:19:44.411Z,7.83
2018-12-23T11:22:13.010Z,7.20
2018-12-23T11:24:41.561Z,7.17
2018-12-23T11:27:10.180Z,7.43
2018-12-23T11:29:38.768Z,7.40
2018-12-23T11:32:07.409Z,6.93
2018-12-23T11:34:36.318Z,7.17
2018-12-23T11:37:04.884Z,6.53
2018-12-23T11:39:33.402Z,7.23
2018-12-23T11:42:02.089Z,7.20
2018-12-23T11:44:30.692Z,6.10
2018-12-23T11:46:59.235Z,7.07
2018-12-23T11:49:27.934Z,6.53
2018-12-23T11:51:56.448Z,7.17
2018-12-23T11:54:25.077Z,6.73
2018-12-23T11:56:53.791Z,6.60
2018-12-23T11:59:22.395Z,6.87
2018-12-23T12:01:51.079Z,7.80
2018-12-23T12:04:19.675Z,6.40
2018-12-23T12:06:48.235Z,7.83
2018-12-23T12:09:16.776Z,6.47
2018-12-23T12:11:45.337Z,5.37
2018-12-23T12:14:13.873Z,4.47
2018-12-23T12:16:42.482Z,6.03
2018-12-23T12:19:11.043Z,5.70
2018-12-23T12:21:39.596Z,6.93
2018-12-23T12:24:08.171Z,5.60
2018-12-23T12:26:36.767Z,6.30
2018-12-23T12:29:05.302Z,7.53
2018-12-23T12:31:33.848Z,7.03
2018-12-23T12:34:02.418Z,7.37
2018-12-23T12:36:31.046Z,6.77
2018-12-23T12:39:01.658Z,8.27
2018-12-23T12:41:30.193Z,8.20
2018-12-23T12:43:58.815Z,6.30
2018-12-23T12:46:27.383Z,5.87
2018-12-23T12:48:55.953Z,8.97
2018-12-23T12:51:24.430Z,8.97
2018-12-23T12:53:52.944Z,7.27
2018-12-23T12:56:21.491Z,7.03
2018-12-23T12:58:50.071Z,7.37
2018-12-23T13:01:18.684Z,8.30
2018-12-23T13:03:47.165Z,6.77
2018-12-23T13:06:15.729Z,9.43
2018-12-23T13:08:44.327Z,7.10
2018-12-23T13:11:13.145Z,7.10
2018-12-23T13:13:41.650Z,6.47
2018-12-23T13:16:10.191Z,7.03
2018-12-23T13:18:38.822Z,6.00
2018-12-23T13:21:07.343Z,6.33
2018-12-23T13:23:35.929Z,5.63
2018-12-23T13:26:04.478Z,5.50
2018-12-23T13:28:33.026Z,5.30
2018-12-23T13:31:01.596Z,7.73
2018-12-23T13:33:30.202Z,5.87
2018-12-23T13:35:58.728Z,5.90
2018-12-23T13:38:27.270Z,4.60
2018-12-23T13:41:21.260Z,5.13
2018-12-23T13:44:19.814Z,5.37
2018-12-23T13:47:15.480Z,7.20
2018-12-23T13:51:57.599Z,9.47
2018-12-23T13:56:42.756Z,4.70
2018-12-23T13:59:23.279Z,4.50
2018-12-23T14:02:01.735Z,5.67
2018-12-23T14:04:40.306Z,7.73
2018-12-23T14:07:58.270Z,9.67
2018-12-23T14:11:22.809Z,12.67
2018-12-23T14:13:51.355Z,10.70
2018-12-23T14:16:19.918Z,5.80
2018-12-23T14:18:48.559Z,6.67
2018-12-23T14:21:17.170Z,6.83
2018-12-23T14:23:45.797Z,7.10
2018-12-23T14:26:14.324Z,8.10
2018-12-23T14:28:42.857Z,9.03
2018-12-23T14:31:11.365Z,9.80
2018-12-23T14:33:39.881Z,6.23
2018-12-23T14:36:08.445Z,9.43
2018-12-23T14:38:37.059Z,8.13
2018-12-23T14:41:05.770Z,8.00
2018-12-23T14:43:34.304Z,7.27
2018-12-23T14:46:02.883Z,5.97
2018-12-23T14:48:31.381Z,7.20
2018-12-23T14:51:00.023Z,8.60
2018-12-23T14:53:28.538Z,8.83
2018-12-23T14:55:57.069Z,9.97
2018-12-23T14:58:25.605Z,10.33
2018-12-23T15:00:54.177Z,7.47
2018-12-23T15:03:22.729Z,8.60
2018-12-23T15:05:51.317Z,8.50
2018-12-23T15:08:19.852Z,9.63
2018-12-23T15:10:48.398Z,8.60
2018-12-23T15:13:17.966Z,9.13
2018-12-23T15:15:46.721Z,9.67
2018-12-23T15:18:15.285Z,9.00
2018-12-23T15:20:43.927Z,9.57
2018-12-23T15:23:12.517Z,8.20
2018-12-23T15:25:41.015Z,8.27
2018-12-23T15:28:09.537Z,8.07
2018-12-23T15:30:38.215Z,7.30
2018-12-23T15:33:06.795Z,4.90
2018-12-23T15:35:37.906Z,6.53
2018-12-23T15:38:06.591Z,6.20
2018-12-23T15:40:35.144Z,7.67
2018-12-23T15:43:03.864Z,5.87
2018-12-23T15:45:32.401Z,6.83
2018-12-23T15:48:00.940Z,6.83
2018-12-23T15:50:29.466Z,6.40
2018-12-23T15:52:58.194Z,8.40
2018-12-23T15:55:26.783Z,7.53
2018-12-23T15:57:55.324Z,7.93
2018-12-23T16:00:23.878Z,19.23
2018-12-23T16:02:52.359Z,24.10
2018-12-23T16:05:20.899Z,25.23
2018-12-23T16:07:49.492Z,14.93
2018-12-23T16:10:18.101Z,13.47
2018-12-23T16:12:46.650Z,14.33
2018-12-23T16:15:15.174Z,14.23
2018-12-23T16:17:43.709Z,13.07
2018-12-23T16:20:13.656Z,14.67
2018-12-23T16:22:42.238Z,10.50
2018-12-23T16:25:10.832Z,9.47
2018-12-23T16:27:39.324Z,10.93
2018-12-23T16:30:10.523Z,11.20
2018-12-23T16:32:39.099Z,14.07
2018-12-23T16:35:07.632Z,11.43
2018-12-23T16:37:36.179Z,11.53
2018-12-23T16:40:06.327Z,14.67
2018-12-23T16:42:34.883Z,14.00
2018-12-23T16:45:03.443Z,16.07
2018-12-23T16:47:31.966Z,18.20
2018-12-23T16:50:00.445Z,17.97
2018-12-23T16:52:29.329Z,19.40
2018-12-23T16:54:57.907Z,16.90
2018-12-23T16:57:26.427Z,15.40
2018-12-23T16:59:54.987Z,16.40
2018-12-23T17:02:23.573Z,12.70
2018-12-23T17:04:52.083Z,13.00
2018-12-23T17:07:20.666Z,14.17
2018-12-23T17:09:49.218Z,11.07
2018-12-23T17:12:17.790Z,9.40
2018-12-23T17:14:46.342Z,8.07
2018-12-23T17:17:14.829Z,9.97
2018-12-23T17:19:43.376Z,10.47
2018-12-23T17:22:11.876Z,8.73
2018-12-23T17:24:40.478Z,9.07
2018-12-23T17:27:09.032Z,11.97
2018-12-23T17:29:37.609Z,13.17
2018-12-23T17:32:06.281Z,8.83
2018-12-23T17:34:34.821Z,7.97
2018-12-23T17:37:03.373Z,9.27
2018-12-23T17:39:31.949Z,8.07
2018-12-23T17:42:00.528Z,6.30
2018-12-23T17:44:29.208Z,4.93
2018-12-23T17:46:57.718Z,6.33
2018-12-23T17:49:26.228Z,6.63
2018-12-23T17:51:54.767Z,8.33
2018-12-23T17:54:23.253Z,6.07
2018-12-23T17:56:51.749Z,6.73
2018-12-23T17:59:20.307Z,5.10
2018-12-23T18:01:48.858Z,6.73
2018-12-23T18:04:17.455Z,5.83
2018-12-23T18:06:45.993Z,5.60
2018-12-23T18:09:14.571Z,7.10
2018-12-23T18:11:43.283Z,6.07
2018-12-23T18:14:12.051Z,5.40
2018-12-23T18:16:40.741Z,7.30
2018-12-23T18:19:09.308Z,6.13
2018-12-23T18:21:38.060Z,7.47
2018-12-23T18:24:06.674Z,8.17
2018-12-23T18:26:35.400Z,5.37
2018-12-23T18:29:03.951Z,7.17
2018-12-23T18:31:32.540Z,5.90
2018-12-23T18:34:01.110Z,9.30
2018-12-23T18:36:29.752Z,7.53
2018-12-23T18:38:58.376Z,7.87
2018-12-23T18:41:26.920Z,9.03
2018-12-23T18:43:55.481Z,8.13
2018-12-23T18:46:24.061Z,9.87
2018-12-23T18:48:52.582Z,9.77
2018-12-23T18:51:21.098Z,9.87
2018-12-23T18:53:49.673Z,18.57
2018-12-23T18:56:19.419Z,37.07
2018-12-23T18:58:47.934Z,38.50
2018-12-23T19:01:17.346Z,41.03
2018-12-23T19:03:45.849Z,40.63
2018-12-23T19:06:14.404Z,42.50
2018-12-23T19:08:59.465Z,41.60
2018-12-23T19:11:36.126Z,44.03
2018-12-23T19:14:16.372Z,47.33
2018-12-23T19:17:53.746Z,45.37
2018-12-23T19:20:50.835Z,45.40
2018-12-23T19:23:41.965Z,46.37
2018-12-23T19:27:21.637Z,44.43
2018-12-23T19:30:20.568Z,47.40
2018-12-23T19:34:14.446Z,43.37
2018-12-23T19:37:09.443Z,45.93
2018-12-23T19:40:14.230Z,41.30
2018-12-23T19:43:04.917Z,44.07
2018-12-23T19:45:59.459Z,44.83
2018-12-23T19:49:04.419Z,55.60
2018-12-23T19:52:23.996Z,63.37
2018-12-23T19:55:17.766Z,38.03
2018-12-23T19:58:26.994Z,38.37
2018-12-23T20:02:01.715Z,39.87
2018-12-23T20:05:26.315Z,63.63
2018-12-23T20:08:51.962Z,67.17
2018-12-23T20:12:06.857Z,92.73
2018-12-23T20:15:23.306Z,95.93
2018-12-23T20:18:42.944Z,86.30
2018-12-23T20:21:50.512Z,58.53
2018-12-23T20:25:06.821Z,62.03
2018-12-23T20:28:00.592Z,62.97
2018-12-23T20:31:05.427Z,68.63
2018-12-23T20:34:15.877Z,65.53
2018-12-23T20:37:47.647Z,80.53
2018-12-23T20:41:07.626Z,45.50
2018-12-23T20:44:07.035Z,74.37
2018-12-23T20:47:04.779Z,70.03
2018-12-23T20:50:30.264Z,51.83
2018-12-23T20:53:35.294Z,85.23
2018-12-23T20:56:55.235Z,79.63
2018-12-23T21:00:14.657Z,68.40
2018-12-23T21:02:58.852Z,60.83
2018-12-23T21:06:01.560Z,62.43
2018-12-23T21:09:09.835Z,72.57
2018-12-23T21:12:16.781Z,55.20
2018-12-23T21:15:26.592Z,62.10
2018-12-23T21:18:23.902Z,65.40
2018-12-23T21:21:31.885Z,60.67
2018-12-23T21:24:37.163Z,64.83
2018-12-23T21:27:36.978Z,75.43
2018-12-23T21:30:31.985Z,76.93
2018-12-23T21:33:39.897Z,65.47
2018-12-23T21:36:41.375Z,74.13
2018-12-23T21:40:09.706Z,53.73
2018-12-23T21:43:05.295Z,60.53
2018-12-23T21:45:56.879Z,62.90
2018-12-23T21:49:16.361Z,53.33
2018-12-23T21:52:26.033Z,45.90
2018-12-23T21:55:38.301Z,46.80
2018-12-23T21:58:47.256Z,38.63
2018-12-23T22:02:05.427Z,41.07
2018-12-23T22:05:24.839Z,45.50
2018-12-23T22:08:34.480Z,44.40
2018-12-23T22:11:35.539Z,49.47
2018-12-23T22:14:06.624Z,50.63
2018-12-23T22:16:36.269Z,48.67
2018-12-23T22:19:05.720Z,47.10
2018-12-23T22:21:35.571Z,42.13
2018-12-23T22:24:06.307Z,55.13
2018-12-23T22:26:35.808Z,41.67
2018-12-23T22:29:05.463Z,37.40
2018-12-23T22:31:36.110Z,48.37
2018-12-23T22:34:05.909Z,33.40
2018-12-23T22:36:35.260Z,33.53
2018-12-23T22:39:06.625Z,34.33
2018-12-23T22:41:41.467Z,41.23
2018-12-23T22:44:09.055Z,37.30
2018-12-23T22:46:38.491Z,37.53
2018-12-23T22:49:07.930Z,41.07
2018-12-23T22:51:37.617Z,39.00
2018-12-23T22:54:08.361Z,36.13
2018-12-23T22:56:37.759Z,28.60
2018-12-23T22:59:10.239Z,39.07
2018-12-23T23:01:40.281Z,35.87
2018-12-23T23:04:09.695Z,38.93
2018-12-23T23:06:39.287Z,41.13
2018-12-23T23:09:10.331Z,49.03
2018-12-23T23:11:39.811Z,45.53
2018-12-23T23:14:10.048Z,38.83
2018-12-23T23:16:40.366Z,38.73
2018-12-23T23:19:16.837Z,39.60
2018-12-23T23:21:46.415Z,41.17
2018-12-23T23:24:16.092Z,42.53
2018-12-23T23:26:46.451Z,38.80
2018-12-23T23:29:16.063Z,46.57
2018-12-23T23:31:54.010Z,35.30
2018-12-23T23:34:23.602Z,32.27
2018-12-23T23:36:53.057Z,39.47
2018-12-23T23:39:25.690Z,33.93
2018-12-23T23:41:58.470Z,35.97
2018-12-23T23:44:27.979Z,35.60
2018-12-23T23:46:57.696Z,35.93
2018-12-23T23:49:27.187Z,36.30
2018-12-23T23:51:56.676Z,29.10
2018-12-23T23:54:26.223Z,31.17
2018-12-23T23:56:55.684Z,29.30
2018-12-23T23:59:25.317Z,26.13
